Time;durP1;ratioP1;P1;durP2;ratioP2;P2;SDS_P1;SDS_P2;PMS_P1;PMS_P2;Temp;Humidity;BMP_temperature;BMP_pressure;BME280_temperature;BME280_humidity;BME280_pressure;Samples;Min_cycle;Max_cycle;Signal;HPM_P1;HPM_P2
2021/10/29 00:00:09;;;;;;;49.77;27.27;;;;;;;4.11;65.86;102337.89;1767606;80;25845;-63
2021/10/29 00:02:38;;;;;;;57.67;28.12;;;;;;;4.13;65.88;102343.15;1774185;80;26124;-63
2021/10/29 00:05:07;;;;;;;60.92;29.45;;;;;;;4.17;65.85;102346.13;1779554;80;25948;-64
2021/10/29 00:07:34;;;;;;;60.08;28.85;;;;;;;4.22;65.68;102343.67;1807913;77;27414;-63
2021/10/29 00:10:01;;;;;;;57.90;29.00;;;;;;;4.29;65.69;102338.99;1791243;79;25708;-62
2021/10/29 00:12:28;;;;;;;65.60;30.68;;;;;;;4.35;65.51;102340.09;1810941;78;25812;-62
2021/10/29 00:14:55;;;;;;;55.17;30.68;;;;;;;4.37;65.10;102336.91;1794392;79;25840;-62
2021/10/29 00:17:23;;;;;;;60.67;29.37;;;;;;;4.38;64.68;102335.13;1811268;77;25819;-63
2021/10/29 00:19:50;;;;;;;66.62;30.65;;;;;;;4.34;64.28;102335.72;1787744;78;27536;-62
2021/10/29 00:22:17;;;;;;;64.42;30.57;;;;;;;4.32;64.10;102333.56;1785542;80;25702;-62
2021/10/29 00:24:44;;;;;;;65.10;30.95;;;;;;;4.26;64.10;102321.78;1785721;80;25845;-63
2021/10/29 00:27:11;;;;;;;58.73;29.63;;;;;;;4.21;63.95;102320.62;1783394;79;25794;-62
2021/10/29 00:29:38;;;;;;;63.25;31.68;;;;;;;4.15;63.94;102327.52;1788696;79;25971;-62
2021/10/29 00:32:06;;;;;;;66.07;31.97;;;;;;;4.08;63.78;102329.52;1782613;80;27639;-63
2021/10/29 00:34:33;;;;;;;68.92;32.28;;;;;;;4.05;63.89;102320.78;1743870;82;25846;-62
2021/10/29 00:37:00;;;;;;;66.10;31.20;;;;;;;3.97;63.99;102315.75;1769652;79;25786;-62
2021/10/29 00:39:27;;;;;;;65.85;31.50;;;;;;;3.93;63.81;102310.11;1785260;79;26487;-62
2021/10/29 00:41:54;;;;;;;65.10;33.23;;;;;;;3.88;63.89;102304.95;1787910;80;25759;-63
2021/10/29 00:44:24;;;;;;;62.95;33.13;;;;;;;3.80;63.83;102307.50;1782868;79;27482;-63
2021/10/29 00:46:51;;;;;;;60.73;31.77;;;;;;;3.75;63.94;102307.66;1789520;79;26015;-62
2021/10/29 00:49:19;;;;;;;62.13;33.15;;;;;;;3.70;63.89;102298.50;1797551;79;25774;-62
2021/10/29 00:51:47;;;;;;;67.05;30.65;;;;;;;3.66;63.81;102300.00;1813302;77;26434;-62
2021/10/29 00:54:18;;;;;;;64.67;32.08;;;;;;;3.63;63.68;102307.59;1813295;79;25802;-62
2021/10/29 00:56:46;;;;;;;64.80;30.88;;;;;;;3.59;63.68;102305.51;1813294;79;27461;-63
2021/10/29 00:59:14;;;;;;;58.68;30.72;;;;;;;3.56;64.53;102304.30;1797197;78;25734;-62
2021/10/29 01:01:41;;;;;;;58.02;28.90;;;;;;;3.54;64.53;102299.97;1789053;80;26039;-63
2021/10/29 01:04:08;;;;;;;55.12;28.55;;;;;;;3.55;64.73;102295.02;1803936;78;25797;-63
2021/10/29 01:06:35;;;;;;;58.10;29.85;;;;;;;3.56;65.27;102288.34;1810136;77;26368;-62
2021/10/29 01:09:03;;;;;;;53.73;27.27;;;;;;;3.55;65.40;102290.59;1810307;77;27471;-63
2021/10/29 01:11:31;;;;;;;60.83;28.27;;;;;;;3.52;65.96;102292.48;1810495;77;25734;-63
2021/10/29 01:13:58;;;;;;;55.83;27.50;;;;;;;3.47;65.88;102287.77;1797023;78;25781;-62
2021/10/29 01:16:25;;;;;;;55.92;28.20;;;;;;;3.45;65.92;102282.03;1791482;80;25773;-64
2021/10/29 01:18:52;;;;;;;58.98;27.35;;;;;;;3.47;65.88;102278.45;1791342;80;25710;-64
2021/10/29 01:21:19;;;;;;;56.20;28.12;;;;;;;3.49;65.94;102275.29;1789069;80;27473;-64
2021/10/29 01:23:46;;;;;;;59.18;29.12;;;;;;;3.51;66.11;102277.44;1789016;78;25944;-62
2021/10/29 01:26:16;;;;;;;57.27;26.75;;;;;;;3.56;66.15;102271.48;1786433;80;25692;-63
2021/10/29 01:28:45;;;;;;;56.95;27.25;;;;;;;3.58;66.70;102273.64;1757501;80;25825;-62
2021/10/29 01:31:15;;;;;;;66.53;28.98;;;;;;;3.57;66.34;102273.23;1787697;80;26259;-62
2021/10/29 01:33:43;;;;;;;62.00;29.67;;;;;;;3.54;66.43;102283.52;1789811;80;28178;-62
2021/10/29 01:36:11;;;;;;;65.90;29.92;;;;;;;3.57;66.64;102276.77;1792645;78;25842;-63
2021/10/29 01:38:42;;;;;;;58.00;28.65;;;;;;;3.60;66.29;102274.46;1810234;79;25841;-63
2021/10/29 01:41:11;;;;;;;64.75;30.95;;;;;;;3.58;66.53;102278.96;1810608;77;25755;-63
2021/10/29 01:43:45;;;;;;;66.30;30.48;;;;;;;3.57;66.36;102281.20;1797227;78;26120;-63
2021/10/29 01:46:13;;;;;;;68.87;32.53;;;;;;;3.58;66.21;102282.95;1787376;78;29285;-63
2021/10/29 01:48:47;;;;;;;68.78;31.35;;;;;;;3.56;66.15;102283.02;1781710;79;26120;-62
2021/10/29 01:51:14;;;;;;;69.12;33.85;;;;;;;3.55;66.02;102284.37;1781982;80;25817;-62
2021/10/29 01:53:42;;;;;;;67.90;35.28;;;;;;;3.54;65.93;102283.52;1781551;80;26510;-62
2021/10/29 01:56:10;;;;;;;71.53;34.27;;;;;;;3.52;65.78;102284.03;1781800;80;25853;-62
2021/10/29 01:58:38;;;;;;;65.10;34.23;;;;;;;3.50;65.81;102292.52;1781621;80;27291;-63
2021/10/29 02:01:06;;;;;;;71.07;32.20;;;;;;;3.41;65.98;102299.05;1782230;80;26022;-62
2021/10/29 02:03:34;;;;;;;71.15;35.05;;;;;;;3.37;66.11;102292.07;1785010;80;26472;-63
2021/10/29 02:06:02;;;;;;;70.05;33.20;;;;;;;3.32;66.87;102298.02;1783751;80;25850;-62
2021/10/29 02:08:30;;;;;;;70.92;33.90;;;;;;;3.28;66.22;102296.38;1784654;79;25775;-63
2021/10/29 02:10:57;;;;;;;66.90;33.60;;;;;;;3.26;66.28;102292.92;1787010;79;27540;-62
2021/10/29 02:13:25;;;;;;;74.42;31.10;;;;;;;3.24;66.40;102296.94;1779074;80;25718;-62
2021/10/29 02:15:52;;;;;;;56.25;28.17;;;;;;;3.22;66.45;102296.59;1779566;80;25748;-62
2021/10/29 02:18:20;;;;;;;58.80;30.00;;;;;;;3.20;66.85;102299.75;1746606;80;55540;-62
2021/10/29 02:20:47;;;;;;;56.28;29.10;;;;;;;3.18;66.68;102296.30;1771960;80;26531;-62
2021/10/29 02:23:15;;;;;;;49.80;29.00;;;;;;;3.19;66.90;102296.67;1782683;80;27473;-62
2021/10/29 02:25:46;;;;;;;68.62;30.43;;;;;;;3.21;67.00;102304.16;1782639;80;25846;-62
2021/10/29 02:28:17;;;;;;;61.00;27.95;;;;;;;3.21;68.91;102305.04;1782600;80;26620;-63
2021/10/29 02:30:46;;;;;;;63.38;28.57;;;;;;;3.18;68.24;102306.94;1782688;80;25855;-62
2021/10/29 02:33:16;;;;;;;54.40;26.27;;;;;;;3.20;68.28;102302.41;1771660;80;25763;-63
2021/10/29 02:35:45;;;;;;;48.78;26.73;;;;;;;3.23;68.78;102308.97;1771434;80;27422;-62
2021/10/29 02:38:13;;;;;;;44.95;25.40;;;;;;;3.18;69.21;102310.45;1760973;80;25885;-61
2021/10/29 02:40:40;;;;;;;50.05;26.87;;;;;;;3.13;69.23;102309.73;1760171;81;25975;-62
2021/10/29 02:43:08;;;;;;;51.88;27.27;;;;;;;3.11;68.65;102312.43;1778825;80;26478;-62
2021/10/29 02:45:36;;;;;;;57.53;26.57;;;;;;;3.13;68.50;102314.59;1779684;80;25786;-63
2021/10/29 02:48:04;;;;;;;56.28;27.50;;;;;;;3.20;68.64;102310.38;1741884;82;28146;-62
2021/10/29 02:50:32;;;;;;;61.02;26.70;;;;;;;3.25;68.42;102313.78;1742330;82;25860;-62
2021/10/29 02:52:59;;;;;;;55.88;28.42;;;;;;;3.31;68.35;102311.38;1780390;80;25479;-62
2021/10/29 02:55:27;;;;;;;51.00;25.08;;;;;;;3.34;68.24;102319.24;1783674;80;25822;-61
2021/10/29 02:57:54;;;;;;;61.02;26.60;;;;;;;3.35;68.02;102314.33;1814148;77;25799;-62
2021/10/29 03:00:21;;;;;;;53.13;25.72;;;;;;;3.36;67.92;102314.75;1775623;80;27480;-63
2021/10/29 03:02:48;;;;;;;48.40;26.57;;;;;;;3.37;67.76;102310.69;1779514;80;25798;-63
2021/10/29 03:05:15;;;;;;;59.20;29.35;;;;;;;3.36;67.61;102312.94;1772684;80;25784;-63
2021/10/29 03:07:43;;;;;;;57.67;26.90;;;;;;;3.35;67.65;102316.99;1772752;80;26418;-63
2021/10/29 03:10:12;;;;;;;62.53;28.65;;;;;;;3.33;67.38;102314.84;1772669;80;25812;-62
2021/10/29 03:12:40;;;;;;;52.53;30.60;;;;;;;3.29;67.28;102314.96;1780828;80;27476;-62
2021/10/29 03:15:09;;;;;;;67.62;29.90;;;;;;;3.28;67.08;102317.65;1783131;80;25449;-62
2021/10/29 03:17:37;;;;;;;69.27;30.12;;;;;;;3.26;66.89;102312.86;1780450;80;25829;-63
2021/10/29 03:20:08;;;;;;;63.50;29.95;;;;;;;3.23;66.79;102319.61;1780352;80;25794;-63
2021/10/29 03:22:35;;;;;;;65.57;29.32;;;;;;;3.20;66.62;102326.34;1773973;80;25708;-63
2021/10/29 03:25:03;;;;;;;64.32;30.37;;;;;;;3.16;66.52;102327.38;1769165;80;27561;-62
2021/10/29 03:27:30;;;;;;;57.15;29.85;;;;;;;3.08;66.40;102327.61;1772771;80;25847;-62
2021/10/29 03:29:57;;;;;;;59.45;29.63;;;;;;;3.03;66.33;102330.42;1772614;80;25806;-63
2021/10/29 03:32:25;;;;;;;56.73;28.60;;;;;;;2.95;66.40;102329.36;1779146;79;26616;-62
2021/10/29 03:34:52;;;;;;;57.33;27.62;;;;;;;2.90;66.28;102333.07;1780391;80;25715;-63
2021/10/29 03:37:44;;;;;;;57.90;29.45;;;;;;;2.86;66.40;102333.62;1776141;80;28670;-63
2021/10/29 03:40:13;;;;;;;54.05;27.70;;;;;;;2.84;66.60;102336.78;1769596;80;25811;-62
2021/10/29 03:42:32;;;;;;;59.83;28.77;;;;;;;2.83;66.63;102337.70;1775784;80;25743;-62
2021/10/29 03:45:03;;;;;;;60.65;27.02;;;;;;;2.82;66.73;102342.60;1779712;80;25794;-63
2021/10/29 03:47:31;;;;;;;61.48;28.67;;;;;;;2.82;67.19;102337.28;1772268;80;25873;-61
2021/10/29 03:50:21;;;;;;;61.10;28.38;;;;;;;2.84;67.51;102349.19;1772338;80;28229;-62
2021/10/29 03:52:36;;;;;;;56.25;29.18;;;;;;;2.80;67.94;102341.33;1793819;79;25907;-63
2021/10/29 03:55:07;;;;;;;59.80;28.32;;;;;;;2.81;67.70;102339.09;1779976;80;25785;-64
2021/10/29 03:57:30;;;;;;;58.80;28.23;;;;;;;2.87;67.95;102339.80;1782280;80;25821;-63
2021/10/29 03:59:57;;;;;;;62.00;28.77;;;;;;;2.93;67.90;102343.59;1783455;80;25739;-63
2021/10/29 04:02:25;;;;;;;56.08;29.50;;;;;;;2.96;67.77;102344.83;1776206;79;28210;-63
2021/10/29 04:04:53;;;;;;;59.30;28.20;;;;;;;3.00;67.87;102338.52;1762605;80;25798;-62
2021/10/29 04:07:19;;;;;;;63.58;27.37;;;;;;;3.06;67.71;102341.41;1763730;80;25715;-62
2021/10/29 04:09:46;;;;;;;66.45;29.45;;;;;;;3.09;67.55;102340.00;1783755;80;26633;-65
2021/10/29 04:12:16;;;;;;;56.83;29.75;;;;;;;3.13;67.53;102337.19;1775267;80;25767;-63
2021/10/29 04:14:44;;;;;;;59.85;28.83;;;;;;;3.17;67.30;102341.95;1778319;79;28206;-63
2021/10/29 04:17:12;;;;;;;58.23;30.65;;;;;;;3.18;67.01;102342.83;1777894;79;25806;-63
2021/10/29 04:19:38;;;;;;;62.67;32.78;;;;;;;3.09;66.57;102344.84;1778164;80;25798;-62
2021/10/29 04:22:05;;;;;;;64.53;31.10;;;;;;;3.03;66.52;102343.71;1777304;80;25859;-63
2021/10/29 04:24:32;;;;;;;65.50;32.93;;;;;;;2.97;66.40;102344.77;1781207;79;25769;-63
2021/10/29 04:27:01;;;;;;;68.07;33.08;;;;;;;2.92;66.21;102344.06;1780596;80;27527;-63
2021/10/29 04:29:35;;;;;;;68.55;32.58;;;;;;;2.85;66.20;102342.52;1777484;80;26230;-62
2021/10/29 04:31:56;;;;;;;62.50;31.73;;;;;;;2.79;66.17;102344.91;1779471;80;25738;-62
2021/10/29 04:34:26;;;;;;;69.25;33.35;;;;;;;2.73;66.10;102347.76;1776507;79;25920;-62
2021/10/29 04:36:57;;;;;;;55.40;30.48;;;;;;;2.64;66.03;102345.37;1768639;80;25810;-62
2021/10/29 04:39:25;;;;;;;53.90;28.85;;;;;;;2.57;66.09;102346.45;1762919;81;28157;-63
2021/10/29 04:41:52;;;;;;;60.08;29.10;;;;;;;2.51;66.52;102342.18;1769915;80;25833;-63
2021/10/29 04:44:22;;;;;;;62.67;30.82;;;;;;;2.48;66.91;102339.16;1772870;80;25851;-63
2021/10/29 04:46:51;;;;;;;61.18;30.70;;;;;;;2.50;66.73;102337.81;1772911;80;26455;-63
2021/10/29 04:49:18;;;;;;;66.35;30.62;;;;;;;2.53;66.79;102343.48;1775148;80;26099;-62
2021/10/29 04:51:46;;;;;;;59.67;28.10;;;;;;;2.54;67.30;102344.76;1778413;80;28345;-62
2021/10/29 04:54:13;;;;;;;69.37;32.65;;;;;;;2.56;67.16;102354.00;1778199;80;25769;-63
2021/10/29 04:56:43;;;;;;;69.60;31.52;;;;;;;2.56;67.17;102348.69;1789694;80;25826;-61
2021/10/29 04:59:10;;;;;;;63.02;29.85;;;;;;;2.61;67.42;102350.77;1775141;80;26494;-62
2021/10/29 05:01:38;;;;;;;62.40;29.82;;;;;;;2.61;67.64;102359.59;1778085;80;25633;-63
2021/10/29 05:04:05;;;;;;;67.78;29.55;;;;;;;2.60;67.68;102370.28;1778447;80;27476;-62
2021/10/29 05:06:31;;;;;;;70.80;34.67;;;;;;;2.59;67.48;102359.23;1812236;77;25799;-62
2021/10/29 05:08:58;;;;;;;64.92;31.75;;;;;;;2.61;67.66;102366.23;1795554;79;25723;-62
2021/10/29 05:11:25;;;;;;;70.75;32.13;;;;;;;2.69;67.77;102362.03;1795383;79;25820;-63
2021/10/29 05:13:55;;;;;;;70.10;32.75;;;;;;;2.73;67.49;102368.13;1789994;79;25868;-61
2021/10/29 05:16:21;;;;;;;61.80;30.50;;;;;;;2.71;67.28;102361.54;1792325;78;27507;-62
2021/10/29 05:18:48;;;;;;;67.15;32.78;;;;;;;2.75;67.03;102368.48;1792402;80;25766;-63
2021/10/29 05:21:15;;;;;;;55.67;31.25;;;;;;;2.73;66.92;102363.70;1800372;77;25774;-63
2021/10/29 05:23:42;;;;;;;58.65;32.70;;;;;;;2.74;66.75;102370.73;1783991;79;26690;-62
2021/10/29 05:26:09;;;;;;;74.15;31.60;;;;;;;2.74;66.63;102371.20;1784068;80;25813;-62
2021/10/29 05:28:35;;;;;;;68.67;34.88;;;;;;;2.74;66.64;102369.40;1784112;80;27522;-62
2021/10/29 05:31:02;;;;;;;79.22;33.85;;;;;;;2.75;66.59;102371.14;1785904;79;27227;-63
2021/10/29 05:33:35;;;;;;;63.78;35.63;;;;;;;2.74;66.42;102368.07;1786637;79;26374;-64
2021/10/29 05:36:05;;;;;;;66.50;32.95;;;;;;;2.72;66.45;102366.38;1782149;80;27156;-67
2021/10/29 05:38:38;;;;;;;68.37;32.40;;;;;;;2.70;66.45;102371.75;1744186;81;25830;-62
2021/10/29 05:41:05;;;;;;;69.53;33.02;;;;;;;2.71;66.39;102373.50;1776602;80;27485;-62
2021/10/29 05:43:32;;;;;;;59.95;30.88;;;;;;;2.73;66.65;102365.03;1785157;79;25712;-62
2021/10/29 05:45:59;;;;;;;68.72;31.70;;;;;;;2.77;66.71;102370.65;1789014;79;25689;-62
2021/10/29 05:48:26;;;;;;;68.97;32.40;;;;;;;2.81;66.68;102376.30;1786913;79;25811;-62
2021/10/29 05:50:55;;;;;;;66.28;31.82;;;;;;;2.85;66.92;102384.16;1781110;80;25792;-62
2021/10/29 05:55:57;;;;;;;64.85;32.40;;;;;;;3.02;67.37;102387.64;1759567;79;25761;-64
2021/10/29 05:58:26;;;;;;;64.35;31.30;;;;;;;3.15;67.47;102394.78;1800385;79;25823;-64
2021/10/29 06:00:54;;;;;;;63.15;31.20;;;;;;;3.24;67.59;102392.69;1799897;79;25737;-63
2021/10/29 06:03:22;;;;;;;62.85;31.70;;;;;;;3.34;67.65;102395.94;1794383;79;25709;-62
2021/10/29 06:05:53;;;;;;;63.38;31.20;;;;;;;3.39;67.40;102392.66;1765284;80;27714;-63
2021/10/29 06:08:23;;;;;;;75.97;30.95;;;;;;;3.48;67.45;102399.93;1737083;81;26469;-64
2021/10/29 06:10:51;;;;;;;75.28;33.30;;;;;;;3.57;67.56;102396.97;1799604;78;25716;-63
2021/10/29 06:13:25;;;;;;;82.20;35.68;;;;;;;3.68;67.50;102401.92;1780288;80;25870;-64
2021/10/29 06:16:14;;;;;;;71.02;35.58;;;;;;;3.74;67.23;102397.27;1779835;79;25707;-62
2021/10/29 06:18:45;;;;;;;77.15;34.45;;;;;;;3.83;67.05;102404.09;1767844;80;26229;-68
2021/10/29 06:21:20;;;;;;;86.35;38.20;;;;;;;3.90;67.06;102408.72;1741768;82;26003;-62
2021/10/29 06:23:57;;;;;;;91.32;38.33;;;;;;;3.97;66.92;102410.28;1773222;80;25709;-62
2021/10/29 06:26:23;;;;;;;79.60;40.00;;;;;;;4.01;66.57;102411.04;1770647;80;25811;-61
2021/10/29 06:28:41;;;;;;;90.90;42.00;;;;;;;4.07;66.76;102410.81;1771682;80;25926;-61
2021/10/29 06:31:08;;;;;;;80.20;41.05;;;;;;;4.13;66.60;102415.92;1775862;80;27517;-62
2021/10/29 06:33:40;;;;;;;88.25;43.60;;;;;;;4.19;66.72;102415.73;1783698;80;25718;-62
2021/10/29 06:36:04;;;;;;;92.15;43.33;;;;;;;4.24;66.50;102419.56;1772178;80;25758;-62
2021/10/29 06:38:31;;;;;;;107.40;45.10;;;;;;;4.29;66.46;102418.06;1741138;80;27183;-61
2021/10/29 06:40:58;;;;;;;99.55;45.90;;;;;;;4.31;66.47;102421.08;1775606;80;25752;-63
2021/10/29 06:43:31;;;;;;;111.65;46.60;;;;;;;4.38;66.42;102417.26;1776577;80;27479;-61
2021/10/29 07:05:22;;;;;;;115.15;50.90;;;;;;;5.12;66.06;102423.42;1762144;81;25788;-63
2021/10/29 07:40:27;;;;;;;98.45;44.27;;;;;;;7.37;64.97;102403.84;1755614;80;25748;-61
2021/10/29 07:42:57;;;;;;;91.37;42.25;;;;;;;7.59;64.59;102396.06;1768468;80;25914;-65
2021/10/29 07:45:26;;;;;;;108.87;47.55;;;;;;;7.79;64.15;102403.13;1766136;80;26164;-63
2021/10/29 07:47:57;;;;;;;112.45;48.90;;;;;;;7.95;63.73;102392.01;1767834;79;25880;-62
2021/10/29 07:50:25;;;;;;;98.20;45.70;;;;;;;8.15;62.79;102395.47;1767133;80;27460;-63
2021/10/29 07:52:55;;;;;;;109.32;45.52;;;;;;;8.29;62.33;102394.26;1767655;79;25798;-62
2021/10/29 07:55:25;;;;;;;114.88;48.05;;;;;;;8.46;61.76;102396.51;1769873;80;26415;-61
2021/10/29 07:57:53;;;;;;;104.47;47.65;;;;;;;8.63;61.54;102394.75;1770639;80;25804;-62
2021/10/29 08:00:21;;;;;;;108.17;44.53;;;;;;;8.77;60.47;102386.34;1798466;78;25794;-62
2021/10/29 08:02:51;;;;;;;109.78;46.50;;;;;;;8.91;60.52;102389.61;1795111;78;28305;-63
2021/10/29 08:05:20;;;;;;;95.60;46.10;;;;;;;9.09;59.99;102390.87;1784937;78;25828;-63
2021/10/29 08:07:49;;;;;;;108.47;45.80;;;;;;;9.25;60.22;102388.19;1768039;78;26478;-64
2021/10/29 08:10:17;;;;;;;103.58;44.95;;;;;;;9.45;58.45;102394.23;1768736;80;26921;-62
2021/10/29 08:12:44;;;;;;;92.50;44.55;;;;;;;9.60;58.93;102387.08;1764758;80;25733;-63
2021/10/29 08:15:11;;;;;;;103.32;44.93;;;;;;;9.79;58.38;102391.75;1763669;80;27072;-62
2021/10/29 08:17:41;;;;;;;114.67;47.45;;;;;;;9.97;58.66;102387.12;1795060;78;26188;-62
2021/10/29 08:20:12;;;;;;;95.60;43.20;;;;;;;10.18;58.55;102382.25;1765034;80;25915;-64
2021/10/29 08:22:40;;;;;;;104.32;45.35;;;;;;;10.40;57.83;102380.94;1803496;77;25923;-63
2021/10/29 08:25:10;;;;;;;98.90;46.40;;;;;;;10.60;56.98;102385.09;1766903;80;25783;-62
2021/10/29 08:27:38;;;;;;;93.78;46.70;;;;;;;10.82;55.46;102386.41;1764802;80;27441;-63
2021/10/29 08:30:08;;;;;;;110.57;53.90;;;;;;;11.02;55.72;102388.30;1769639;79;25943;-63
2021/10/29 08:32:38;;;;;;;99.37;45.40;;;;;;;11.24;55.57;102383.26;1765141;80;25916;-63
2021/10/29 08:35:07;;;;;;;97.92;45.52;;;;;;;11.48;54.78;102385.28;1771625;80;26440;-62
2021/10/29 08:37:36;;;;;;;93.12;44.67;;;;;;;11.75;55.27;102383.04;1765924;80;25810;-62
2021/10/29 08:40:06;;;;;;;103.02;45.85;;;;;;;12.00;53.53;102386.78;1769012;79;27458;-63
2021/10/29 08:42:33;;;;;;;95.87;44.73;;;;;;;12.21;53.17;102388.46;1791857;78;26432;-63
2021/10/29 08:45:07;;;;;;;105.32;46.50;;;;;;;12.48;52.40;102393.77;1793310;78;25741;-62
2021/10/29 08:47:40;;;;;;;;;;;;;;;12.76;52.08;102380.99;1799352;78;26594;-62
2021/10/29 08:50:11;;;;;;;99.22;45.10;;;;;;;13.23;51.51;102383.88;1777365;79;26183;-63
2021/10/29 08:52:40;;;;;;;117.37;46.88;;;;;;;14.03;50.47;102382.36;1749476;80;27379;-63
2021/10/29 08:55:09;;;;;;;115.17;49.63;;;;;;;14.89;49.60;102375.66;1754833;80;25929;-64
2021/10/29 08:57:38;;;;;;;119.85;47.90;;;;;;;15.60;48.43;102375.20;1749701;80;25855;-63
2021/10/29 09:00:13;;;;;;;137.00;50.03;;;;;;;16.34;47.21;102374.83;1750568;80;25786;-64
2021/10/29 09:03:18;;;;;;;121.15;47.73;;;;;;;16.89;46.03;102376.70;1759014;80;25837;-63
2021/10/29 09:05:45;;;;;;;92.72;46.28;;;;;;;17.45;45.63;102372.16;1694321;81;27598;-64
2021/10/29 09:08:16;;;;;;;91.70;45.05;;;;;;;17.97;43.34;102373.23;1727512;81;25898;-64
2021/10/29 09:11:04;;;;;;;105.65;44.38;;;;;;;18.43;42.99;102376.11;1738131;80;25803;-64
2021/10/29 09:33:04;;;;;;;96.35;41.63;;;;;;;21.05;38.02;102363.14;1744296;80;27548;-67
2021/10/29 09:35:58;;;;;;;80.03;38.73;;;;;;;21.43;36.54;102353.98;1697659;81;25820;-66
2021/10/29 09:38:29;;;;;;;89.75;38.95;;;;;;;21.78;35.91;102354.70;1724986;80;25935;-63
2021/10/29 09:41:17;;;;;;;81.50;38.60;;;;;;;22.07;35.52;102354.67;1732779;81;26402;-68
2021/10/29 09:43:46;;;;;;;85.40;39.65;;;;;;;22.34;35.70;102355.28;1747556;80;25793;-65
2021/10/29 09:46:20;;;;;;;83.12;39.95;;;;;;;22.60;34.68;102348.70;1733096;81;28299;-63
2021/10/29 09:48:53;;;;;;;80.25;38.33;;;;;;;22.95;34.38;102342.36;1729647;81;25885;-64
2021/10/29 09:51:23;;;;;;;87.78;35.73;;;;;;;23.37;33.96;102341.06;1791208;79;25841;-64
2021/10/29 09:59:01;;;;;;;74.17;31.68;;;;;;;24.63;31.67;102333.61;1785574;79;27172;-65
2021/10/29 10:01:30;;;;;;;80.15;34.25;;;;;;;24.83;31.71;102333.04;1790998;78;25854;-65
2021/10/29 10:04:02;;;;;;;64.32;31.15;;;;;;;25.04;30.62;102328.08;1789564;78;25813;-64
2021/10/29 10:06:36;;;;;;;82.88;34.30;;;;;;;25.20;30.87;102331.11;1785221;79;25853;-64
2021/10/29 10:09:04;;;;;;;71.02;32.63;;;;;;;25.46;30.14;102324.19;1763764;81;26606;-64
2021/10/29 10:11:34;;;;;;;73.28;34.03;;;;;;;25.76;30.14;102321.27;1765681;80;27463;-65
2021/10/29 10:14:02;;;;;;;53.95;32.48;;;;;;;26.21;28.91;102316.29;1756769;80;25735;-66
2021/10/29 10:16:35;;;;;;;74.47;33.18;;;;;;;26.50;29.15;102314.28;1778163;80;25832;-64
2021/10/29 10:19:02;;;;;;;51.05;28.25;;;;;;;26.80;28.64;102308.49;1778099;80;25937;-64
2021/10/29 10:21:33;;;;;;;43.90;24.65;;;;;;;27.16;27.93;102308.68;1785692;78;25808;-65
2021/10/29 10:24:02;;;;;;;48.17;22.17;;;;;;;27.44;28.13;102299.90;1790796;78;28154;-65
2021/10/29 10:40:39;;;;;;;25.10;13.95;;;;;;;27.78;26.35;102289.15;1766543;81;25715;-64
2021/10/29 10:46:19;;;;;;;25.50;13.03;;;;;;;27.82;26.30;102282.65;1760098;81;25791;-64
2021/10/29 10:49:11;;;;;;;30.90;10.28;;;;;;;27.82;25.79;102279.89;1777841;79;26297;-64
2021/10/29 10:57:10;;;;;;;30.82;10.60;;;;;;;27.64;25.68;102273.11;1745790;80;25819;-63
2021/10/29 10:59:46;;;;;;;22.62;9.38;;;;;;;27.86;26.42;102266.47;1779868;80;25904;-65
2021/10/29 11:02:35;;;;;;;21.82;9.30;;;;;;;28.05;25.43;102275.80;1780554;78;25917;-64
2021/10/29 11:04:55;;;;;;;15.58;7.85;;;;;;;28.29;25.37;102275.62;1784052;79;28200;-64
2021/10/29 11:10:17;;;;;;;13.88;7.40;;;;;;;28.51;25.21;102262.88;1772051;80;25743;-65
2021/10/29 11:12:50;;;;;;;14.87;6.90;;;;;;;28.78;25.22;102264.97;1767297;79;25759;-64
2021/10/29 11:15:24;;;;;;;20.52;6.78;;;;;;;28.88;24.44;102265.89;1776056;80;26244;-65
2021/10/29 11:18:00;;;;;;;15.88;6.25;;;;;;;28.82;24.91;102262.64;1768950;80;27901;-64
2021/10/29 11:20:47;;;;;;;16.93;6.28;;;;;;;28.67;24.37;102252.66;1740821;82;25993;-69
2021/10/29 11:23:35;;;;;;;13.90;5.50;;;;;;;28.42;24.82;102253.45;1750064;79;25865;-65
2021/10/29 11:26:05;;;;;;;19.82;6.53;;;;;;;28.26;24.42;102253.95;1770734;80;26405;-65
2021/10/29 11:28:41;;;;;;;;;;;;;;;27.99;24.75;102253.14;1766870;79;25837;-65
2021/10/29 11:31:12;;;;;;;16.37;7.20;;;;;;;27.60;25.12;102248.36;1754489;80;28315;-64
2021/10/29 11:33:46;;;;;;;15.80;7.10;;;;;;;27.10;25.72;102247.38;1757029;79;25842;-64
2021/10/29 11:36:16;;;;;;;18.50;7.08;;;;;;;26.90;26.17;102242.36;1758758;80;25737;-64
2021/10/29 11:38:47;;;;;;;16.27;6.28;;;;;;;26.61;26.17;102243.87;1778315;80;25761;-65
2021/10/29 11:41:18;;;;;;;22.77;6.90;;;;;;;26.36;26.37;102245.78;1780003;80;25830;-64
2021/10/29 11:43:45;;;;;;;12.30;6.37;;;;;;;26.12;26.66;102246.32;1774371;79;27453;-63
2021/10/29 11:46:14;;;;;;;10.78;6.30;;;;;;;25.85;26.82;102239.25;1772620;79;25931;-63
2021/10/29 11:48:56;;;;;;;11.22;5.28;;;;;;;25.53;27.08;102236.92;1771882;80;25819;-64
2021/10/29 11:51:24;;;;;;;20.95;5.75;;;;;;;25.29;27.36;102244.56;1769664;80;25916;-64
2021/10/29 11:54:13;;;;;;;20.80;6.80;;;;;;;25.00;27.70;102243.66;1764161;80;25838;-64
2021/10/29 12:07:36;;;;;;;11.15;5.30;;;;;;;23.79;29.03;102237.69;1757696;80;25764;-63
2021/10/29 12:10:15;;;;;;;14.60;5.58;;;;;;;23.80;29.11;102244.91;1773869;80;27475;-64
2021/10/29 12:12:45;;;;;;;7.83;4.80;;;;;;;23.69;29.26;102243.45;1773943;80;25715;-65
2021/10/29 12:15:22;;;;;;;13.62;5.08;;;;;;;23.40;29.62;102234.98;1770666;79;25701;-65
2021/10/29 12:18:01;;;;;;;15.18;7.03;;;;;;;23.22;29.93;102238.05;1777049;80;25826;-64
2021/10/29 12:20:37;;;;;;;11.05;5.97;;;;;;;23.15;30.34;102237.05;1764317;80;25972;-64
2021/10/29 12:23:11;;;;;;;13.03;5.37;;;;;;;23.19;30.38;102237.56;1753422;79;27023;-65
2021/10/29 12:25:44;;;;;;;16.77;6.45;;;;;;;23.40;30.36;102240.98;1737348;82;25784;-65
2021/10/29 12:28:19;;;;;;;11.65;6.22;;;;;;;23.51;30.11;102240.53;1736987;82;26433;-65
2021/10/29 12:30:54;;;;;;;11.90;5.35;;;;;;;23.64;30.06;102241.80;1778543;80;25859;-64
2021/10/29 12:39:25;;;;;;;11.35;6.60;;;;;;;23.25;30.44;102234.95;1775637;79;25766;-65
2021/10/29 12:58:57;;;;;;;20.35;8.38;;;;;;;21.62;32.50;102233.69;1780198;79;25806;-64
2021/10/29 13:01:30;;;;;;;19.55;8.93;;;;;;;21.20;33.17;102234.73;1768544;80;25796;-65
2021/10/29 13:04:03;;;;;;;23.27;7.78;;;;;;;20.80;33.64;102238.64;1778998;79;27486;-65
2021/10/29 13:06:45;;;;;;;19.67;6.90;;;;;;;20.54;34.37;102243.69;1796659;79;25761;-64
2021/10/29 13:09:21;;;;;;;18.32;6.08;;;;;;;20.27;34.78;102252.48;1773703;80;25923;-65
2021/10/29 13:12:01;;;;;;;15.55;5.08;;;;;;;19.97;35.04;102252.50;1771934;80;25822;-64
2021/10/29 13:16:58;;;;;;;14.75;5.40;;;;;;;19.48;35.65;102259.31;1776381;79;27430;-63
2021/10/29 13:35:40;;;;;;;12.80;4.20;;;;;;;18.50;37.27;102261.42;1792895;78;25762;-64
2021/10/29 13:50:29;;;;;;;10.18;5.12;;;;;;;18.03;38.19;102264.21;1789119;79;27483;-64
2021/10/29 13:59:23;;;;;;;11.80;5.10;;;;;;;19.29;37.94;102252.67;1765650;80;25786;-64
2021/10/29 14:16:21;;;;;;;11.55;5.65;;;;;;;19.31;36.66;102246.07;1770636;80;26472;-64
2021/10/29 14:34:15;;;;;;;17.07;6.40;;;;;;;16.31;41.23;102254.24;1784461;79;26004;-63
2021/10/29 14:36:46;;;;;;;16.07;6.70;;;;;;;16.19;41.40;102259.77;1792537;78;27551;-63
2021/10/29 14:39:15;;;;;;;15.23;6.95;;;;;;;16.04;41.78;102250.28;1793141;78;25853;-62
2021/10/29 14:41:47;;;;;;;16.10;7.08;;;;;;;15.84;42.29;102245.27;1794158;79;25754;-63
2021/10/29 14:44:23;;;;;;;19.92;7.80;;;;;;;15.68;42.48;102239.80;1778510;80;25949;-63
2021/10/29 14:46:56;;;;;;;15.53;7.65;;;;;;;15.57;42.83;102243.94;1776894;78;25782;-63
2021/10/29 15:16:08;;;;;;;22.67;9.95;;;;;;;14.32;44.98;102241.16;1769274;79;27500;-63
2021/10/29 15:24:36;;;;;;;26.10;11.03;;;;;;;14.24;45.06;102250.39;1766249;80;25775;-63
2021/10/29 15:29:24;;;;;;;26.27;10.03;;;;;;;13.77;46.74;102248.66;1766326;80;27465;-62